L'viv, Ukraine
Current Conditions -  °F | °C
As of 11:30 AM on Sunday 23 Nov 2014 (Local Time) from UKLL Reporting Station
Haze Haze  
Wind Chill: 30°   Ceiling: 400
Heat Index: 34°   Visibility: 3mi
Dew Point: 32°   Wind: 4mph
Humidity: 93%   Direction: 340°NNW
Pressure: 30.45"   Gusts: NA
Location:  49.84°N, 24.03°E
Report Text: UKLL 230830Z 34002MPS 280V040 5000 BR OVC004 01/M00 Q1031 31190070 NOSIG
Loading
Personal Weather Stations






























Interactive Weather Map New forecast layout! Learn more

10-Day Weather Forecast

Advertisements
Track Severe Weather on mobile